createdAt,value
2017-06-03T00:00:30.976Z,1.38
2017-06-03T00:03:01.272Z,1.38
2017-06-03T00:05:31.692Z,1.60
2017-06-03T00:08:01.695Z,1.30
2017-06-03T00:10:33.228Z,2.10
2017-06-03T00:13:03.689Z,1.24
2017-06-03T00:15:33.539Z,1.40
2017-06-03T00:18:03.566Z,1.02
2017-06-03T00:20:33.537Z,1.20
2017-06-03T00:23:03.821Z,1.90
2017-06-03T00:25:34.035Z,1.56
2017-06-03T00:28:04.385Z,1.40
2017-06-03T00:30:34.697Z,1.04
2017-06-03T00:33:04.891Z,1.40
2017-06-03T00:35:35.034Z,1.42
2017-06-03T00:38:04.625Z,1.14
2017-06-03T00:40:34.622Z,1.36
2017-06-03T00:43:04.691Z,1.20
2017-06-03T00:45:34.489Z,1.20
2017-06-03T00:48:04.613Z,1.20
2017-06-03T00:50:33.746Z,2.26
2017-06-03T00:53:03.852Z,1.10
2017-06-03T00:55:33.980Z,0.86
2017-06-03T00:58:03.906Z,1.34
2017-06-03T01:00:34.168Z,1.28
2017-06-03T01:03:04.406Z,1.10
2017-06-03T01:05:34.982Z,1.10
2017-06-03T01:08:05.122Z,1.50
2017-06-03T01:10:36.177Z,1.32
2017-06-03T01:13:06.400Z,1.20
2017-06-03T01:15:36.812Z,1.72
2017-06-03T01:18:07.170Z,1.56
2017-06-03T01:20:37.086Z,1.42
2017-06-03T01:23:07.271Z,0.90
2017-06-03T01:25:37.702Z,1.14
2017-06-03T01:28:07.657Z,1.56
2017-06-03T01:30:38.092Z,1.00
2017-06-03T01:33:08.032Z,1.10
2017-06-03T01:35:37.975Z,1.08
2017-06-03T01:38:08.159Z,1.28
2017-06-03T01:40:38.361Z,1.10
2017-06-03T01:43:07.613Z,1.14
2017-06-03T01:45:37.710Z,1.14
2017-06-03T01:48:07.657Z,1.22
2017-06-03T01:50:37.852Z,1.10
2017-06-03T01:53:08.188Z,1.00
2017-06-03T01:55:38.131Z,1.12
2017-06-03T01:58:07.997Z,0.98
2017-06-03T02:00:38.192Z,1.06
2017-06-03T02:03:09.546Z,2.72
2017-06-03T02:05:39.600Z,1.32
2017-06-03T02:08:09.710Z,0.92
2017-06-03T02:10:41.644Z,1.16
2017-06-03T02:13:11.514Z,1.80
2017-06-03T02:15:40.965Z,1.10
2017-06-03T02:18:10.958Z,1.04
2017-06-03T02:20:40.820Z,1.24
2017-06-03T02:23:12.178Z,1.42
2017-06-03T02:25:42.327Z,1.30
2017-06-03T02:28:11.519Z,1.14
2017-06-03T02:30:42.163Z,1.18
2017-06-03T02:33:11.458Z,1.22
2017-06-03T02:35:41.257Z,1.20
2017-06-03T02:38:11.303Z,1.20
2017-06-03T02:40:41.235Z,1.36
2017-06-03T02:43:11.330Z,1.32
2017-06-03T02:45:41.315Z,1.56
2017-06-03T02:48:11.511Z,1.44
2017-06-03T02:50:41.404Z,1.54
2017-06-03T02:53:11.803Z,1.40
2017-06-03T02:55:49.153Z,1.68
2017-06-03T02:58:19.342Z,1.90
2017-06-03T03:00:49.406Z,1.72
2017-06-03T03:03:18.385Z,1.88
2017-06-03T03:05:48.275Z,1.58
2017-06-03T03:08:18.575Z,1.60
2017-06-03T03:10:49.386Z,1.60
2017-06-03T03:13:19.274Z,1.62
2017-06-03T03:15:49.441Z,1.42
2017-06-03T03:18:19.586Z,1.60
2017-06-03T03:20:49.845Z,1.60
2017-06-03T03:23:19.950Z,1.42
2017-06-03T03:25:50.289Z,1.86
2017-06-03T03:28:20.501Z,2.10
2017-06-03T03:30:50.775Z,1.78
2017-06-03T03:33:20.800Z,1.60
2017-06-03T03:35:51.293Z,1.56
2017-06-03T03:38:21.367Z,1.78
2017-06-03T03:40:51.702Z,1.96
2017-06-03T03:43:21.659Z,1.62
2017-06-03T03:45:51.584Z,1.74
2017-06-03T03:48:21.826Z,1.54
2017-06-03T03:50:52.207Z,1.58
2017-06-03T03:53:22.440Z,1.90
2017-06-03T03:55:52.721Z,2.00
2017-06-03T03:58:22.922Z,2.26
2017-06-03T04:00:53.254Z,2.50
2017-06-03T04:03:22.724Z,2.42
2017-06-03T04:05:52.992Z,2.22
2017-06-03T04:09:04.948Z,1.90
2017-06-03T04:11:35.584Z,1.90
2017-06-03T04:14:05.022Z,2.50
2017-06-03T04:16:34.797Z,2.37
2017-06-03T04:19:04.255Z,2.57
2017-06-03T04:21:33.964Z,2.30
2017-06-03T04:24:03.658Z,5.07
2017-06-03T04:26:33.694Z,2.40
2017-06-03T04:29:03.434Z,2.10
2017-06-03T04:31:32.835Z,1.83
2017-06-03T04:34:02.275Z,2.30
2017-06-03T04:36:31.813Z,1.90
2017-06-03T04:39:01.685Z,2.20
2017-06-03T04:41:31.000Z,2.40
2017-06-03T04:44:00.225Z,2.10
2017-06-03T04:46:30.692Z,1.97
2017-06-03T04:49:00.110Z,2.43
2017-06-03T04:51:29.548Z,2.60
2017-06-03T04:53:58.351Z,2.50
2017-06-03T04:56:28.289Z,2.57
2017-06-03T04:58:57.747Z,3.00
2017-06-03T05:01:26.405Z,2.37
2017-06-03T05:03:55.837Z,2.93
2017-06-03T05:06:25.491Z,4.90
2017-06-03T05:08:54.974Z,4.60
2017-06-03T05:11:24.387Z,3.33
2017-06-03T05:13:55.524Z,3.93
2017-06-03T05:16:26.058Z,9.63
2017-06-03T05:18:56.262Z,9.50
2017-06-03T05:21:25.777Z,9.17
2017-06-03T05:23:55.408Z,7.50
2017-06-03T05:26:25.031Z,8.00
2017-06-03T05:28:54.494Z,6.97
2017-06-03T05:31:23.830Z,6.93
2017-06-03T05:33:53.589Z,7.00
2017-06-03T05:36:23.144Z,6.17
2017-06-03T05:38:52.726Z,7.00
2017-06-03T05:41:22.264Z,5.57
2017-06-03T05:43:51.805Z,5.67
2017-06-03T05:46:21.211Z,5.57
2017-06-03T05:48:52.014Z,5.07
2017-06-03T05:51:21.113Z,4.80
2017-06-03T05:53:50.563Z,4.00
2017-06-03T05:56:20.084Z,3.97
2017-06-03T05:58:50.677Z,4.20
2017-06-03T06:01:20.121Z,4.10
2017-06-03T06:03:49.710Z,4.13
2017-06-03T06:06:19.032Z,3.53
2017-06-03T06:08:48.652Z,3.40
2017-06-03T06:11:18.251Z,3.77
2017-06-03T06:13:48.036Z,3.00
2017-06-03T06:16:18.966Z,3.07
2017-06-03T06:18:48.322Z,3.40
2017-06-03T06:21:17.847Z,2.83
2017-06-03T06:23:47.385Z,2.47
2017-06-03T06:26:16.775Z,2.87
2017-06-03T06:28:46.096Z,2.70
2017-06-03T06:31:15.425Z,3.10
2017-06-03T06:33:45.146Z,2.53
2017-06-03T06:36:14.717Z,2.77
2017-06-03T06:38:44.230Z,3.07
2017-06-03T06:41:13.803Z,3.20
2017-06-03T06:43:43.555Z,2.30
2017-06-03T06:46:13.817Z,6.90
2017-06-03T06:48:43.208Z,4.67
2017-06-03T06:51:12.737Z,5.43
2017-06-03T06:53:42.286Z,5.53
2017-06-03T06:56:12.541Z,5.50
2017-06-03T06:58:42.142Z,5.60
2017-06-03T07:01:11.346Z,5.20
2017-06-03T07:03:40.851Z,6.20
2017-06-03T07:06:10.135Z,6.93
2017-06-03T07:08:39.272Z,7.43
2017-06-03T07:11:08.592Z,6.70
2017-06-03T07:13:38.094Z,7.33
2017-06-03T07:16:07.648Z,6.50
2017-06-03T07:18:38.372Z,6.23
2017-06-03T07:21:08.758Z,6.57
2017-06-03T07:23:38.289Z,6.10
2017-06-03T07:26:07.713Z,6.13
2017-06-03T07:28:37.291Z,5.00
2017-06-03T07:31:07.115Z,5.30
2017-06-03T07:33:36.619Z,5.07
2017-06-03T07:36:06.204Z,4.60
2017-06-03T07:38:35.688Z,4.10
2017-06-03T07:41:05.119Z,4.57
2017-06-03T07:43:34.386Z,4.40
2017-06-03T07:46:03.983Z,4.20
2017-06-03T07:48:33.327Z,4.30
2017-06-03T07:51:02.993Z,4.30
2017-06-03T07:53:32.324Z,4.93
2017-06-03T07:56:01.494Z,4.90
2017-06-03T07:58:30.809Z,4.33
2017-06-03T08:01:00.159Z,4.10
2017-06-03T08:03:30.158Z,5.07
2017-06-03T08:05:59.580Z,3.60
2017-06-03T08:08:29.177Z,3.40
2017-06-03T08:10:58.655Z,3.00
2017-06-03T08:13:27.827Z,3.27
2017-06-03T08:15:57.233Z,3.50
2017-06-03T08:18:26.410Z,3.57
2017-06-03T08:20:56.609Z,3.50
2017-06-03T08:23:26.163Z,3.50
2017-06-03T08:25:55.440Z,3.80
2017-06-03T08:28:24.953Z,3.67
2017-06-03T08:30:54.537Z,3.60
2017-06-03T08:33:25.068Z,3.87
2017-06-03T08:35:54.438Z,3.40
2017-06-03T08:38:23.526Z,3.27
2017-06-03T08:40:53.037Z,3.40
2017-06-03T08:43:22.640Z,3.00
2017-06-03T08:45:52.044Z,2.67
2017-06-03T08:48:21.162Z,2.80
2017-06-03T08:50:51.663Z,2.67
2017-06-03T08:53:20.852Z,2.83
2017-06-03T08:55:50.464Z,2.80
2017-06-03T08:58:19.922Z,2.53
2017-06-03T09:00:49.403Z,2.40
2017-06-03T09:03:18.663Z,2.50
2017-06-03T09:05:47.951Z,2.17
2017-06-03T09:08:17.155Z,2.33
2017-06-03T09:10:46.583Z,2.33
2017-06-03T09:13:15.983Z,2.20
2017-06-03T09:15:45.031Z,1.80
2017-06-03T09:18:14.449Z,1.80
2017-06-03T09:20:44.176Z,2.37
2017-06-03T09:23:14.483Z,1.87
2017-06-03T09:25:43.949Z,1.97
2017-06-03T09:28:13.576Z,2.30
2017-06-03T09:30:43.251Z,1.70
2017-06-03T09:33:12.541Z,1.97
2017-06-03T09:35:41.834Z,1.77
2017-06-03T09:38:11.312Z,1.90
2017-06-03T09:40:40.869Z,1.97
2017-06-03T09:43:09.930Z,2.30
2017-06-03T09:45:39.524Z,1.60
2017-06-03T09:48:09.211Z,2.00
2017-06-03T09:50:38.687Z,1.57
2017-06-03T09:53:08.119Z,2.00
2017-06-03T09:55:37.825Z,1.90
2017-06-03T09:58:08.334Z,1.90
2017-06-03T10:00:37.663Z,2.40
2017-06-03T10:03:07.209Z,2.40
2017-06-03T10:05:36.411Z,1.90
2017-06-03T10:08:05.733Z,1.97
2017-06-03T10:10:35.461Z,1.80
2017-06-03T10:13:05.623Z,2.20
2017-06-03T10:15:35.027Z,2.27
2017-06-03T10:18:04.233Z,2.00
2017-06-03T10:20:33.666Z,2.00
2017-06-03T10:23:03.067Z,1.80
2017-06-03T10:25:33.152Z,2.20
2017-06-03T10:28:02.466Z,1.80
2017-06-03T10:30:31.705Z,1.93
2017-06-03T10:33:02.053Z,1.40
2017-06-03T10:35:31.382Z,1.80
2017-06-03T10:38:00.807Z,2.07
2017-06-03T10:40:30.428Z,1.83
2017-06-03T10:43:00.137Z,1.70
2017-06-03T10:45:29.516Z,1.63
2017-06-03T10:47:59.108Z,1.40
2017-06-03T10:50:28.980Z,1.77
2017-06-03T10:52:58.385Z,1.80
2017-06-03T10:55:27.923Z,1.80
2017-06-03T10:57:57.073Z,1.70
2017-06-03T11:00:26.193Z,2.10
2017-06-03T11:02:55.849Z,1.70
2017-06-03T11:05:25.795Z,1.90
2017-06-03T11:07:55.242Z,1.77
2017-06-03T11:10:24.669Z,2.00
2017-06-03T11:12:53.915Z,1.77
2017-06-03T11:15:23.273Z,1.73
2017-06-03T11:17:52.902Z,1.73
2017-06-03T11:20:22.186Z,1.90
2017-06-03T11:22:51.529Z,2.00
2017-06-03T11:25:21.158Z,1.43
2017-06-03T11:27:51.893Z,1.90
2017-06-03T11:30:21.116Z,2.10
2017-06-03T11:32:50.301Z,2.20
2017-06-03T11:35:20.091Z,2.03
2017-06-03T11:37:49.732Z,1.97
2017-06-03T11:40:18.952Z,2.00
2017-06-03T11:42:48.443Z,1.87
2017-06-03T11:45:17.952Z,2.37
2017-06-03T11:47:47.422Z,2.20
2017-06-03T11:50:17.121Z,2.57
2017-06-03T11:52:46.690Z,1.93
2017-06-03T11:55:16.088Z,1.80
2017-06-03T11:57:45.698Z,1.80
2017-06-03T12:00:15.455Z,2.00
2017-06-03T12:02:44.873Z,1.90
2017-06-03T12:05:14.277Z,2.10
2017-06-03T12:07:43.703Z,2.20
2017-06-03T12:10:12.923Z,1.90
2017-06-03T12:12:42.196Z,1.77
2017-06-03T12:15:11.767Z,1.80
2017-06-03T12:17:41.336Z,2.23
2017-06-03T12:20:10.618Z,2.23
2017-06-03T12:22:40.169Z,1.90
2017-06-03T12:25:09.306Z,2.00
2017-06-03T12:27:38.870Z,2.30
2017-06-03T12:30:08.992Z,1.87
2017-06-03T12:32:38.456Z,1.83
2017-06-03T12:35:08.021Z,2.00
2017-06-03T12:37:37.572Z,2.03
2017-06-03T12:40:06.378Z,1.90
2017-06-03T12:42:35.847Z,2.10
2017-06-03T12:45:05.323Z,2.10
2017-06-03T12:47:34.929Z,2.10
2017-06-03T12:50:05.103Z,1.87
2017-06-03T12:52:34.384Z,2.00
2017-06-03T12:55:03.921Z,2.53
2017-06-03T12:57:33.497Z,2.30
2017-06-03T13:00:03.275Z,2.17
2017-06-03T13:02:32.604Z,2.33
2017-06-03T13:05:02.058Z,2.43
2017-06-03T13:07:31.589Z,2.30
2017-06-03T13:10:01.295Z,2.07
2017-06-03T13:12:31.440Z,2.40
2017-06-03T13:15:00.447Z,2.60
2017-06-03T13:17:29.917Z,2.40
2017-06-03T13:19:59.491Z,2.60
2017-06-03T13:22:28.986Z,2.50
2017-06-03T13:24:58.161Z,2.70
2017-06-03T13:27:27.760Z,2.67
2017-06-03T13:29:57.025Z,2.10
2017-06-03T13:32:28.355Z,2.40
2017-06-03T13:34:57.737Z,3.30
2017-06-03T13:37:27.186Z,2.10
2017-06-03T13:39:56.956Z,2.57
2017-06-03T13:42:26.251Z,2.43
2017-06-03T13:44:55.447Z,2.70
2017-06-03T13:47:25.016Z,2.80
2017-06-03T13:49:54.526Z,2.87
2017-06-03T13:52:23.952Z,2.43
2017-06-03T13:54:53.683Z,2.50
2017-06-03T13:57:23.077Z,3.30
2017-06-03T13:59:52.386Z,2.10
2017-06-03T14:02:21.456Z,2.30
2017-06-03T14:04:51.029Z,2.83
2017-06-03T14:07:20.342Z,3.00
2017-06-03T14:09:49.637Z,2.43
2017-06-03T14:12:18.980Z,2.57
2017-06-03T14:14:48.320Z,2.53
2017-06-03T14:17:17.673Z,2.30
2017-06-03T14:19:47.167Z,2.30
2017-06-03T14:22:16.567Z,2.20
2017-06-03T14:24:46.101Z,2.57
2017-06-03T14:27:15.275Z,2.73
2017-06-03T14:29:44.691Z,2.40
2017-06-03T14:32:14.312Z,2.70
2017-06-03T14:34:44.424Z,2.90
2017-06-03T14:37:13.785Z,2.80
2017-06-03T14:39:43.585Z,2.63
2017-06-03T14:42:13.816Z,2.80
2017-06-03T14:44:43.286Z,2.20
2017-06-03T14:47:12.976Z,2.30
2017-06-03T14:49:42.482Z,2.20
2017-06-03T14:52:11.752Z,2.30
2017-06-03T14:54:41.367Z,2.10
2017-06-03T14:57:10.899Z,2.50
2017-06-03T14:59:40.177Z,2.10
2017-06-03T15:02:09.582Z,2.50
2017-06-03T15:04:38.974Z,2.20
2017-06-03T15:07:08.485Z,2.40
2017-06-03T15:09:37.786Z,2.00
2017-06-03T15:12:07.406Z,2.40
2017-06-03T15:14:36.867Z,2.00
2017-06-03T15:17:06.815Z,2.00
2017-06-03T15:19:36.316Z,2.23
2017-06-03T15:22:05.624Z,2.00
2017-06-03T15:24:34.990Z,1.93
2017-06-03T15:27:05.075Z,2.37
2017-06-03T15:29:34.509Z,2.27
2017-06-03T15:32:04.758Z,2.30
2017-06-03T15:34:34.297Z,1.97
2017-06-03T15:37:04.282Z,2.10
2017-06-03T15:39:33.486Z,1.93
2017-06-03T15:42:02.901Z,2.20
2017-06-03T15:44:32.371Z,2.23
2017-06-03T15:47:01.394Z,2.30
2017-06-03T15:49:31.005Z,2.83
2017-06-03T15:52:00.504Z,2.47
2017-06-03T15:54:30.310Z,2.30
2017-06-03T15:56:59.926Z,2.13
2017-06-03T15:59:29.222Z,2.07
2017-06-03T16:01:58.477Z,2.00
2017-06-03T16:04:27.923Z,2.00
2017-06-03T16:06:57.575Z,1.97
2017-06-03T16:09:27.150Z,1.90
2017-06-03T16:11:56.883Z,1.70
2017-06-03T16:14:26.350Z,1.20
2017-06-03T16:16:55.963Z,1.60
2017-06-03T16:19:25.295Z,1.60
2017-06-03T16:21:54.874Z,1.80
2017-06-03T16:24:24.358Z,1.90
2017-06-03T16:26:54.417Z,1.63
2017-06-03T16:29:23.832Z,2.03
2017-06-03T16:31:53.405Z,1.90
2017-06-03T16:34:22.907Z,1.57
2017-06-03T16:36:52.182Z,1.73
2017-06-03T16:39:22.649Z,3.40
2017-06-03T16:41:52.231Z,3.40
2017-06-03T16:44:21.286Z,3.00
2017-06-03T16:46:50.542Z,3.53
2017-06-03T16:49:20.096Z,2.87
2017-06-03T16:51:49.692Z,2.20
2017-06-03T16:54:19.148Z,1.97
2017-06-03T16:56:48.820Z,1.80
2017-06-03T16:59:18.572Z,1.90
2017-06-03T17:01:47.957Z,2.10
2017-06-03T17:04:17.107Z,1.87
2017-06-03T17:06:46.731Z,1.90
2017-06-03T17:09:16.251Z,2.20
2017-06-03T17:11:45.604Z,2.07
2017-06-03T17:14:14.903Z,1.67
2017-06-03T17:16:44.439Z,1.87
2017-06-03T17:19:13.739Z,1.47
2017-06-03T17:21:43.285Z,2.00
2017-06-03T17:24:12.988Z,1.63
2017-06-03T17:26:42.756Z,1.67
2017-06-03T17:29:12.140Z,2.23
2017-06-03T17:31:41.528Z,1.70
2017-06-03T17:34:10.949Z,1.90
2017-06-03T17:36:40.466Z,1.97
2017-06-03T17:39:09.979Z,1.90
2017-06-03T17:41:40.080Z,1.77
2017-06-03T17:44:09.313Z,2.20
2017-06-03T17:46:38.898Z,2.00
2017-06-03T17:49:08.494Z,1.83
2017-06-03T17:51:38.154Z,1.90
2017-06-03T17:54:07.460Z,2.07
2017-06-03T17:56:38.063Z,1.73
2017-06-03T17:59:07.462Z,2.17
2017-06-03T18:01:37.062Z,2.03
2017-06-03T18:04:06.364Z,2.00
2017-06-03T18:06:35.830Z,2.10
2017-06-03T18:09:05.388Z,1.73
2017-06-03T18:11:35.891Z,1.93
2017-06-03T18:14:05.463Z,2.27
2017-06-03T18:16:35.092Z,2.30
2017-06-03T18:19:04.619Z,1.90
2017-06-03T18:21:34.108Z,2.40
2017-06-03T18:24:04.658Z,2.30
2017-06-03T18:26:33.933Z,2.00
2017-06-03T18:29:03.210Z,2.10
2017-06-03T18:31:33.723Z,1.80
2017-06-03T18:34:04.240Z,2.00
2017-06-03T18:36:34.465Z,1.83
2017-06-03T18:39:04.472Z,1.87
2017-06-03T18:41:33.563Z,2.37
2017-06-03T18:44:04.296Z,2.30
2017-06-03T18:46:33.515Z,2.50
2017-06-03T18:49:02.523Z,2.03
2017-06-03T18:51:32.700Z,3.00
2017-06-03T18:54:02.195Z,2.73
2017-06-03T18:56:31.460Z,2.20
2017-06-03T18:59:00.939Z,2.40
2017-06-03T19:01:30.519Z,2.30
2017-06-03T19:03:59.833Z,2.30
2017-06-03T19:06:29.202Z,2.47
2017-06-03T19:08:58.558Z,2.47
2017-06-03T19:11:27.989Z,2.20
2017-06-03T19:13:57.459Z,2.23
2017-06-03T19:16:27.875Z,2.17
2017-06-03T19:18:57.351Z,2.00
2017-06-03T19:21:26.569Z,2.30
2017-06-03T19:23:56.007Z,2.00
2017-06-03T19:26:25.688Z,2.37
2017-06-03T19:28:54.976Z,2.40
2017-06-03T19:31:24.285Z,2.27
2017-06-03T19:33:54.075Z,2.40
2017-06-03T19:36:23.505Z,2.13
2017-06-03T19:38:52.925Z,2.20
2017-06-03T19:41:22.467Z,2.30
2017-06-03T19:43:52.146Z,2.50
2017-06-03T19:46:22.920Z,2.80
2017-06-03T19:48:52.337Z,2.23
2017-06-03T19:51:21.668Z,2.50
2017-06-03T19:53:51.432Z,3.50
2017-06-03T19:56:20.782Z,2.10
2017-06-03T19:58:50.272Z,2.90
2017-06-03T20:01:19.791Z,2.97
2017-06-03T20:03:49.400Z,2.40
2017-06-03T20:06:18.974Z,2.10
2017-06-03T20:08:48.648Z,2.37
2017-06-03T20:11:18.011Z,2.20
2017-06-03T20:13:47.722Z,3.20
2017-06-03T20:16:17.137Z,2.63
2017-06-03T20:18:46.683Z,2.83
2017-06-03T20:21:16.328Z,2.63
2017-06-03T20:23:45.668Z,2.80
2017-06-03T20:26:15.154Z,2.57
2017-06-03T20:28:44.637Z,2.80
2017-06-03T20:31:14.021Z,2.60
2017-06-03T20:33:43.463Z,2.60
2017-06-03T20:36:13.154Z,3.20
2017-06-03T20:38:42.719Z,2.87
2017-06-03T20:41:12.269Z,2.70
2017-06-03T20:43:41.554Z,2.50
2017-06-03T20:46:11.317Z,2.70
2017-06-03T20:48:42.388Z,2.50
2017-06-03T20:51:11.662Z,2.60
2017-06-03T20:53:41.173Z,2.90
2017-06-03T20:56:10.558Z,2.47
2017-06-03T20:58:39.950Z,2.57
2017-06-03T21:01:09.528Z,2.30
2017-06-03T21:03:39.610Z,3.27
2017-06-03T21:06:09.280Z,2.90
2017-06-03T21:08:38.683Z,2.43
2017-06-03T21:11:07.899Z,2.83
2017-06-03T21:13:37.613Z,3.00
2017-06-03T21:16:07.960Z,2.67
2017-06-03T21:18:37.763Z,2.90
2017-06-03T21:21:07.881Z,2.60
2017-06-03T21:23:37.563Z,3.00
2017-06-03T21:26:07.015Z,2.77
2017-06-03T21:28:36.438Z,3.03
2017-06-03T21:31:05.971Z,2.43
2017-06-03T21:33:35.691Z,2.70
2017-06-03T21:36:05.282Z,2.53
2017-06-03T21:38:34.846Z,2.67
2017-06-03T21:41:04.420Z,2.40
2017-06-03T21:43:34.677Z,2.40
2017-06-03T21:46:04.338Z,2.70
2017-06-03T21:48:33.801Z,2.40
2017-06-03T21:51:03.624Z,3.13
2017-06-03T21:53:32.749Z,2.80
2017-06-03T21:56:02.507Z,2.77
2017-06-03T21:58:32.214Z,2.60
2017-06-03T22:01:01.763Z,3.17
2017-06-03T22:03:31.062Z,2.60
2017-06-03T22:06:00.453Z,2.70
2017-06-03T22:08:29.736Z,2.50
2017-06-03T22:10:59.503Z,2.70
2017-06-03T22:13:29.182Z,2.50
2017-06-03T22:15:58.485Z,2.40
2017-06-03T22:18:28.077Z,2.30
2017-06-03T22:20:57.598Z,2.27
2017-06-03T22:23:27.133Z,2.50
2017-06-03T22:25:56.585Z,2.60
2017-06-03T22:28:26.127Z,2.53
2017-06-03T22:30:55.620Z,2.33
2017-06-03T22:33:24.992Z,2.30
2017-06-03T22:35:54.554Z,1.80
2017-06-03T22:38:24.036Z,2.40
2017-06-03T22:40:53.397Z,2.20
2017-06-03T22:43:22.999Z,2.00
2017-06-03T22:45:52.685Z,2.20
2017-06-03T22:48:21.946Z,2.23
2017-06-03T22:50:51.585Z,2.20
2017-06-03T22:53:21.837Z,2.30
2017-06-03T22:55:51.092Z,2.57
2017-06-03T22:58:20.572Z,2.80
2017-06-03T23:00:49.859Z,2.77
2017-06-03T23:03:19.033Z,2.63
2017-06-03T23:05:48.337Z,2.53
2017-06-03T23:08:18.095Z,2.53
2017-06-03T23:10:47.383Z,2.40
2017-06-03T23:13:17.079Z,2.07
2017-06-03T23:15:46.317Z,1.97
2017-06-03T23:18:15.408Z,2.40
2017-06-03T23:20:44.911Z,2.10
2017-06-03T23:23:14.211Z,2.30
2017-06-03T23:25:43.430Z,2.40
2017-06-03T23:28:13.124Z,2.57
2017-06-03T23:30:42.485Z,2.60
2017-06-03T23:33:11.943Z,2.20
2017-06-03T23:35:41.598Z,2.40
2017-06-03T23:38:10.819Z,2.30
2017-06-03T23:40:40.019Z,2.37
2017-06-03T23:43:09.408Z,2.20
2017-06-03T23:45:39.046Z,2.77
2017-06-03T23:48:08.710Z,2.23
2017-06-03T23:50:38.432Z,2.33
2017-06-03T23:53:08.377Z,3.20
2017-06-03T23:55:38.990Z,1.90
2017-06-03T23:58:08.478Z,2.43
